Flight Track Log - Related Links

Times and Time Zones

All times are in EDT time to prevent confusion due to time zone crossing. See the JBU56 flight status page for this flight to view local times or setup timezone preferences in your user account.

Time Position Orientation Groundspeed Altitude Reporting Facility
EDT Latitude Longitude Course Direction KTS MPH feet Rate Location/Type
Tue 09:03:40 AM 38.9500 -77.5167 78° East 164 189 1,800  Level Potomac TRACON
Tue 09:04:34 AM 39.0000 -77.5167 360° North 255 293 3,000 2,053 Climbing Potomac TRACON
Tue 09:05:34 AM 39.0667 -77.5167 360° North 234 269 5,700 2,650 Climbing Potomac TRACON
Tue 09:06:00 AM 39.0234 -76.9882 77° East  Level FlightAware Approximate
Tue 09:06:34 AM 39.1333 -77.4667 30° Northeast 276 318 8,300  Level Potomac TRACON
Tue 09:07:00 AM 39.0444 -76.8671 78° East  Level FlightAware Approximate
Tue 09:08:00 AM 39.0646 -76.7457 78° East  Level FlightAware Approximate
Tue 09:08:28 AM 39.1289 -77.2747 92° East 288 331 10,500  Level Washington Center
Tue 09:09:28 AM 39.1011 -77.1617 108° East 310 357 13,500 2,777 Climbing Washington Center
Tue 09:10:29 AM 39.0858 -77.0464 100° East 318 366 16,100 2,213 Climbing Washington Center
Tue 09:11:30 AM 39.0978 -76.9236 83° East 329 379 18,000 2,132 Climbing Washington Center
Tue 09:12:30 AM 39.1094 -76.7953 83° East 340 391 20,400 2,218 Climbing Washington Center
Tue 09:13:29 AM 39.1211 -76.6644 83° East 355 409 22,400 1,300 Climbing Washington Center
Tue 09:14:30 AM 39.1328 -76.5308 84° East 365 420 23,000 298 Climbing Washington Center
Tue 09:15:30 AM 39.1461 -76.3972 83° East 371 427 23,000  Level Washington Center
Tue 09:16:27 AM 39.1553 -76.2661 85° East 371 427 23,000  Level Washington Center
Tue 09:17:28 AM 39.1728 -76.1189 81° East 371 427 23,000 885 Level Washington Center
Tue 09:18:29 AM 39.1836 -75.9825 84° East 371 427 24,800 1,623 Climbing Washington Center
Tue 09:19:30 AM 39.2111 -75.8647 73° East 376 433 26,300 1,462 Climbing Washington Center
Tue 09:20:28 AM 39.2906 -75.7497 48° Northeast 365 420 27,700 1,373 Climbing Washington Center
Tue 09:21:28 AM 39.3656 -75.6561 44° Northeast 408 470 29,000 1,200 Climbing Washington Center
Tue 09:22:28 AM 39.4489 -75.5486 45° Northeast 415 478 30,100 992 Climbing Washington Center
Tue 09:23:29 AM 39.5406 -75.4300 45° Northeast 415 478 31,000 277 Climbing Washington Center
Tue 09:25:43 AM 39.7244 -75.1839 46° Northeast 443 510 31,000  Level New York Center
Tue 09:26:42 AM 39.8083 -75.0622 48° Northeast 449 517 31,000  Level New York Center
Tue 09:27:43 AM 39.8919 -74.9400 48° Northeast 449 517 31,000  Level New York Center
Tue 09:28:44 AM 39.9861 -74.8075 47° Northeast 454 522 31,000  Level New York Center
Tue 09:29:44 AM 40.0717 -74.6850 48° Northeast 454 522 31,000  Level New York Center
Tue 09:30:42 AM 40.1547 -74.5647 48° Northeast 454 522 31,000  Level New York Center
Tue 09:31:43 AM 40.2481 -74.4475 44° Northeast 454 522 31,000  Level New York Center
Tue 09:32:41 AM 40.3450 -74.3439 39° Northeast 454 522 31,000  Level New York Center
Tue 09:34:16 AM 40.4989 -74.1758 40° Northeast 475 547 31,000 -39 Level Boston Center
Tue 09:35:16 AM 40.5675 -74.0411 56° Northeast 442 509 30,900 -500 Descending Boston Center
Tue 09:36:16 AM 40.6072 -73.8861 71° East 426 490 30,000 -950 Descending Boston Center
Tue 09:37:16 AM 40.6611 -73.7342 65° Northeast 442 509 29,000 -1,700 Descending Boston Center
Tue 09:38:16 AM 40.7458 -73.6044 49° Northeast 464 534 26,600 -2,350 Descending Boston Center
Tue 09:39:16 AM 40.8283 -73.4825 48° Northeast 451 519 24,300 -1,300 Descending Boston Center
Tue 09:40:16 AM 40.9108 -73.3600 48° Northeast 441 507 24,000 -350 Descending Boston Center
Tue 09:41:16 AM 40.9908 -73.2458 47° Northeast 433 498 23,600 -500 Descending Boston Center
Tue 09:42:16 AM 41.0708 -73.1283 48° Northeast 433 498 23,000 -300 Descending Boston Center
Tue 09:43:16 AM 41.1403 -73.0022 54° Northeast 428 493 23,000  Level Boston Center
Tue 09:44:16 AM 41.1950 -72.8622 63° Northeast 428 493 23,000  Level Boston Center
Tue 09:45:16 AM 41.2475 -72.7161 64° Northeast 422 486 23,000  Level Boston Center
Tue 09:46:16 AM 41.2978 -72.5839 63° Northeast 432 497 23,000  Level Boston Center
Tue 09:47:16 AM 41.3522 -72.4400 63° Northeast 437 503 23,000 -400 Level Boston Center
Tue 09:48:16 AM 41.4061 -72.2961 63° Northeast 437 503 22,200 -1,350 Descending Boston Center
Tue 09:49:16 AM 41.4600 -72.1492 64° Northeast 422 486 20,300 -1,900 Descending Boston Center
Tue 09:50:16 AM 41.5097 -72.0161 63° Northeast 410 472 18,400 -1,700 Descending Boston Center
Tue 09:51:16 AM 41.5550 -71.8964 63° Northeast 395 455 16,900 -1,650 Descending Boston Center
Tue 09:52:16 AM 41.6064 -71.7517 65° Northeast 390 449 15,100 -1,650 Descending Boston Center
Tue 09:53:16 AM 41.6453 -71.6456 64° Northeast 367 422 13,600 -1,500 Descending Boston Center
Tue 09:54:16 AM 41.6922 -71.5200 63° Northeast 345 397 12,100 -1,300 Descending Boston Center
Tue 09:55:16 AM 41.7331 -71.4219 61° Northeast 312 359 11,000 -550 Descending Boston Center
Tue 09:56:16 AM 41.7844 -71.3319 53° Northeast 299 344 11,000  Level Boston Center
Tue 09:57:16 AM 41.8461 -71.2697 37° Northeast 284 327 11,000 -150 Level Boston Center
Tue 09:58:16 AM 41.9186 -71.2264 24° Northeast 279 321 10,700 -1,300 Descending Boston Center
Tue 09:59:16 AM 41.9914 -71.1886 21° North 274 315 8,400 -2,050 Descending Boston Center
Tue 10:00:16 AM 42.0597 -71.1567 19° North 266 306 6,600 -1,950 Descending Boston Center
Tue 10:01:16 AM 42.1258 -71.1189 23° Northeast 255 293 4,500 -1,139 Descending Boston Center
Tue 10:02:33 AM 42.2000 -71.0833 20° North 179 206 4,000 -657 Descending KA90
Tue 10:03:33 AM 42.2500 -71.0667 14° North 174 200 3,000 -950 Descending KA90
Tue 10:04:33 AM 42.2833 -71.0500 20° North 174 200 2,100 -1,200 Descending KA90
Tue 10:05:33 AM 42.3333 -71.0333 14° North 158 182 600 7,166 Descending KA90
Tue 10:07:28 AM 42.4078 -70.9892 24° Northeast 161 185 23,000 11,687 Climbing Boston Center

Login

Don't have an account? Register now (free) for customized features, flight alerts, and more!